createdAt,value
2018-09-05T00:00:46.105Z,9.53
2018-09-05T00:03:14.549Z,9.33
2018-09-05T00:05:42.984Z,8.87
2018-09-05T00:08:11.426Z,9.70
2018-09-05T00:10:40.035Z,8.30
2018-09-05T00:13:08.678Z,9.37
2018-09-05T00:15:37.197Z,9.97
2018-09-05T00:18:05.641Z,9.73
2018-09-05T00:20:34.249Z,11.73
2018-09-05T00:23:02.708Z,9.70
2018-09-05T00:25:31.214Z,10.40
2018-09-05T00:27:59.590Z,9.60
2018-09-05T00:30:27.986Z,10.50
2018-09-05T00:32:56.389Z,9.63
2018-09-05T00:35:24.838Z,9.43
2018-09-05T00:37:53.266Z,9.37
2018-09-05T00:40:21.800Z,10.47
2018-09-05T00:42:50.337Z,9.83
2018-09-05T00:45:18.781Z,10.10
2018-09-05T00:47:47.308Z,9.93
2018-09-05T00:50:15.688Z,9.67
2018-09-05T00:52:44.104Z,10.53
2018-09-05T00:55:12.496Z,10.77
2018-09-05T00:57:40.926Z,10.80
2018-09-05T01:00:09.468Z,9.83
2018-09-05T01:02:37.987Z,10.50
2018-09-05T01:05:06.508Z,10.80
2018-09-05T01:07:35.043Z,9.87
2018-09-05T01:10:03.445Z,10.67
2018-09-05T01:12:31.848Z,10.07
2018-09-05T01:15:00.432Z,10.80
2018-09-05T01:17:28.977Z,10.67
2018-09-05T01:19:57.537Z,10.30
2018-09-05T01:22:25.889Z,9.60
2018-09-05T01:24:54.354Z,9.27
2018-09-05T01:27:22.839Z,9.03
2018-09-05T01:29:51.245Z,10.33
2018-09-05T01:32:19.798Z,10.57
2018-09-05T01:34:48.259Z,11.43
2018-09-05T01:37:16.705Z,9.53
2018-09-05T01:39:45.179Z,10.57
2018-09-05T01:42:13.627Z,10.87
2018-09-05T01:44:42.173Z,10.63
2018-09-05T01:47:10.575Z,10.03
2018-09-05T01:49:39.030Z,12.40
2018-09-05T01:52:07.462Z,9.90
2018-09-05T01:54:36.007Z,9.20
2018-09-05T01:57:04.482Z,8.50
2018-09-05T01:59:32.835Z,10.33
2018-09-05T02:02:01.328Z,11.20
2018-09-05T02:04:29.815Z,14.07
2018-09-05T02:06:58.334Z,14.03
2018-09-05T02:09:26.706Z,11.07
2018-09-05T02:11:55.097Z,10.17
2018-09-05T02:14:23.655Z,11.17
2018-09-05T02:16:52.154Z,10.23
2018-09-05T02:19:20.745Z,9.27
2018-09-05T02:21:49.208Z,9.43
2018-09-05T02:24:17.682Z,9.73
2018-09-05T02:26:46.109Z,9.33
2018-09-05T02:29:14.588Z,9.23
2018-09-05T02:31:42.991Z,9.63
2018-09-05T02:34:11.390Z,9.53
2018-09-05T02:36:39.781Z,8.73
2018-09-05T02:39:09.745Z,9.40
2018-09-05T02:41:38.205Z,10.13
2018-09-05T02:44:12.211Z,9.70
2018-09-05T02:46:40.598Z,8.47
2018-09-05T02:49:09.492Z,10.30
2018-09-05T02:51:38.016Z,13.07
2018-09-05T02:54:06.465Z,10.43
2018-09-05T02:56:35.007Z,10.77
2018-09-05T02:59:03.571Z,10.90
2018-09-05T03:01:32.182Z,10.90
2018-09-05T03:04:00.633Z,10.83
2018-09-05T03:06:29.160Z,12.07
2018-09-05T03:08:57.639Z,10.90
2018-09-05T03:11:26.153Z,11.40
2018-09-05T03:13:54.600Z,12.60
2018-09-05T03:16:23.032Z,11.10
2018-09-05T03:18:51.467Z,10.87
2018-09-05T03:21:19.954Z,11.47
2018-09-05T03:23:48.417Z,10.83
2018-09-05T03:26:16.855Z,10.03
2018-09-05T03:28:45.397Z,9.80
2018-09-05T03:31:13.853Z,10.20
2018-09-05T03:33:42.355Z,9.80
2018-09-05T03:36:10.785Z,9.97
2018-09-05T03:38:39.296Z,10.17
2018-09-05T03:41:07.800Z,11.77
2018-09-05T03:43:36.285Z,10.87
2018-09-05T03:46:04.839Z,11.07
2018-09-05T03:48:33.295Z,10.37
2018-09-05T03:51:01.713Z,10.03
2018-09-05T03:53:30.200Z,11.73
2018-09-05T03:56:05.133Z,11.70
2018-09-05T03:58:33.725Z,12.73
2018-09-05T04:01:02.184Z,11.33
2018-09-05T04:03:30.673Z,13.13
2018-09-05T04:05:59.045Z,11.00
2018-09-05T04:08:27.509Z,10.37
2018-09-05T04:10:56.023Z,9.63
2018-09-05T04:13:24.482Z,10.27
2018-09-05T04:15:52.968Z,11.07
2018-09-05T04:18:21.448Z,11.53
2018-09-05T04:20:49.863Z,11.50
2018-09-05T04:23:18.334Z,11.33
2018-09-05T04:25:46.761Z,12.30
2018-09-05T04:28:15.219Z,10.90
2018-09-05T04:30:43.689Z,11.73
2018-09-05T04:33:12.116Z,12.73
2018-09-05T04:35:40.523Z,13.13
2018-09-05T04:38:08.931Z,12.40
2018-09-05T04:40:37.303Z,12.97
2018-09-05T04:43:05.702Z,12.23
2018-09-05T04:45:34.119Z,12.33
2018-09-05T04:48:02.557Z,12.60
2018-09-05T04:50:31.145Z,12.37
2018-09-05T04:52:59.621Z,12.73
2018-09-05T04:55:28.139Z,11.57
2018-09-05T04:57:56.687Z,12.23
2018-09-05T05:00:25.178Z,10.70
2018-09-05T05:02:53.666Z,10.80
2018-09-05T05:05:22.132Z,11.23
2018-09-05T05:07:50.481Z,10.90
2018-09-05T05:10:19.015Z,10.63
2018-09-05T05:12:47.362Z,10.97
2018-09-05T05:15:15.818Z,11.87
2018-09-05T05:17:44.244Z,10.83
2018-09-05T05:20:12.737Z,10.93
2018-09-05T05:22:41.187Z,11.20
2018-09-05T05:25:09.672Z,11.30
2018-09-05T05:27:38.102Z,10.70
2018-09-05T05:30:06.763Z,12.07
2018-09-05T05:32:35.191Z,10.70
2018-09-05T05:35:03.623Z,11.67
2018-09-05T05:37:32.079Z,12.13
2018-09-05T05:40:04.874Z,11.50
2018-09-05T05:42:33.338Z,12.33
2018-09-05T05:45:01.969Z,10.83
2018-09-05T05:47:31.142Z,10.60
2018-09-05T05:49:59.602Z,10.67
2018-09-05T05:52:28.033Z,12.00
2018-09-05T05:54:56.604Z,12.20
2018-09-05T05:57:25.027Z,11.30
2018-09-05T05:59:53.530Z,11.70
2018-09-05T06:02:22.033Z,12.80
2018-09-05T06:04:50.563Z,10.87
2018-09-05T06:07:19.078Z,10.90
2018-09-05T06:09:47.463Z,10.77
2018-09-05T06:12:15.941Z,10.53
2018-09-05T06:14:44.310Z,10.73
2018-09-05T06:17:12.921Z,11.40
2018-09-05T06:19:41.405Z,11.23
2018-09-05T06:22:09.878Z,10.80
2018-09-05T06:24:38.283Z,10.03
2018-09-05T06:27:06.736Z,10.13
2018-09-05T06:29:35.223Z,11.77
2018-09-05T06:32:03.718Z,11.20
2018-09-05T06:34:32.247Z,11.60
2018-09-05T06:37:00.735Z,11.60
2018-09-05T06:39:29.115Z,11.97
2018-09-05T06:41:57.446Z,11.10
2018-09-05T06:44:26.023Z,10.83
2018-09-05T06:46:54.499Z,11.30
2018-09-05T06:49:22.918Z,11.13
2018-09-05T06:51:51.308Z,10.77
2018-09-05T06:54:19.719Z,10.27
2018-09-05T06:56:48.127Z,10.90
2018-09-05T06:59:16.587Z,10.43
2018-09-05T07:01:45.135Z,10.73
2018-09-05T07:04:13.560Z,11.13
2018-09-05T07:06:42.108Z,10.73
2018-09-05T07:09:12.159Z,10.43
2018-09-05T07:11:41.056Z,11.40
2018-09-05T07:14:09.594Z,10.67
2018-09-05T07:16:37.979Z,11.07
2018-09-05T07:19:07.730Z,11.00
2018-09-05T07:21:36.653Z,10.97
2018-09-05T07:24:05.055Z,11.37
2018-09-05T07:26:33.518Z,12.07
2018-09-05T07:29:01.886Z,11.80
2018-09-05T07:31:30.319Z,11.90
2018-09-05T07:33:58.791Z,10.90
2018-09-05T07:36:27.383Z,12.53
2018-09-05T07:38:55.746Z,12.33
2018-09-05T07:41:24.143Z,12.27
2018-09-05T07:43:52.592Z,10.40
2018-09-05T07:46:21.020Z,11.47
2018-09-05T07:48:49.454Z,11.27
2018-09-05T07:51:18.167Z,11.57
2018-09-05T07:53:46.543Z,12.47
2018-09-05T07:56:15.105Z,13.37
2018-09-05T07:58:43.599Z,13.93
2018-09-05T08:01:12.179Z,12.80
2018-09-05T08:03:40.676Z,11.93
2018-09-05T08:06:09.185Z,15.13
2018-09-05T08:08:37.663Z,13.93
2018-09-05T08:11:06.248Z,15.63
2018-09-05T08:13:34.655Z,14.77
2018-09-05T08:16:03.176Z,16.43
2018-09-05T08:18:31.586Z,14.27
2018-09-05T08:21:00.032Z,14.00
2018-09-05T08:23:28.549Z,13.60
2018-09-05T08:25:57.310Z,14.13
2018-09-05T08:28:25.812Z,11.80
2018-09-05T08:30:54.268Z,13.53
2018-09-05T08:33:22.839Z,14.70
2018-09-05T08:35:51.629Z,13.03
2018-09-05T08:38:20.143Z,12.13
2018-09-05T08:40:48.702Z,12.27
2018-09-05T08:43:17.144Z,13.23
2018-09-05T08:45:46.067Z,14.50
2018-09-05T08:48:14.487Z,12.03
2018-09-05T08:50:42.941Z,12.40
2018-09-05T08:53:11.479Z,13.93
2018-09-05T08:55:39.885Z,14.13
2018-09-05T08:58:08.456Z,13.47
2018-09-05T09:00:37.017Z,14.83
2018-09-05T09:03:05.538Z,13.80
2018-09-05T09:05:33.918Z,13.43
2018-09-05T09:08:02.382Z,13.57
2018-09-05T09:10:30.807Z,13.90
2018-09-05T09:12:59.251Z,13.57
2018-09-05T09:15:27.617Z,13.10
2018-09-05T09:17:56.044Z,13.33
2018-09-05T09:20:24.379Z,13.20
2018-09-05T09:22:52.854Z,12.50
2018-09-05T09:25:21.334Z,12.80
2018-09-05T09:27:49.800Z,13.67
2018-09-05T09:30:18.306Z,13.47
2018-09-05T09:32:46.783Z,12.87
2018-09-05T09:35:15.256Z,12.20
2018-09-05T09:37:43.690Z,13.33
2018-09-05T09:40:12.149Z,14.03
2018-09-05T09:42:40.850Z,12.97
2018-09-05T09:45:09.295Z,13.90
2018-09-05T09:47:37.662Z,12.97
2018-09-05T09:50:06.201Z,13.57
2018-09-05T09:52:37.730Z,13.47
2018-09-05T09:55:07.479Z,12.83
2018-09-05T09:57:36.324Z,12.20
2018-09-05T10:00:05.276Z,12.70
2018-09-05T10:02:39.006Z,12.97
2018-09-05T10:05:12.829Z,13.53
2018-09-05T10:07:46.687Z,13.43
2018-09-05T10:10:20.703Z,13.47
2018-09-05T10:12:49.854Z,12.70
2018-09-05T10:15:23.720Z,13.63
2018-09-05T10:17:57.758Z,13.10
2018-09-05T10:20:26.313Z,12.80
2018-09-05T10:22:54.688Z,12.60
2018-09-05T10:25:23.130Z,12.80
2018-09-05T10:27:51.536Z,13.20
2018-09-05T10:30:20.031Z,12.93
2018-09-05T10:32:48.500Z,13.40
2018-09-05T10:35:17.111Z,12.90
2018-09-05T10:37:45.593Z,13.10
2018-09-05T10:40:14.172Z,12.20
2018-09-05T10:42:42.665Z,13.30
2018-09-05T10:45:11.163Z,12.27
2018-09-05T10:47:39.677Z,12.60
2018-09-05T10:50:08.200Z,13.07
2018-09-05T10:52:36.715Z,12.80
2018-09-05T10:55:05.164Z,12.97
2018-09-05T10:57:33.591Z,12.50
2018-09-05T11:00:02.028Z,12.20
2018-09-05T11:02:30.396Z,13.40
2018-09-05T11:04:58.836Z,13.80
2018-09-05T11:07:27.198Z,12.83
2018-09-05T11:09:55.649Z,13.43
2018-09-05T11:12:24.077Z,12.90
2018-09-05T11:14:52.624Z,13.40
2018-09-05T11:17:21.147Z,13.00
2018-09-05T11:19:49.643Z,12.93
2018-09-05T11:22:18.247Z,12.77
2018-09-05T11:24:46.651Z,12.57
2018-09-05T11:27:15.336Z,13.00
2018-09-05T11:29:44.738Z,13.23
2018-09-05T11:32:15.286Z,13.23
2018-09-05T11:34:43.723Z,12.70
2018-09-05T11:37:12.107Z,13.13
2018-09-05T11:39:42.071Z,13.03
2018-09-05T11:42:10.501Z,13.33
2018-09-05T11:44:38.970Z,13.33
2018-09-05T11:47:07.371Z,12.77
2018-09-05T11:49:36.048Z,12.43
2018-09-05T11:52:05.650Z,13.33
2018-09-05T11:54:34.080Z,13.73
2018-09-05T11:57:03.661Z,13.50
2018-09-05T11:59:32.134Z,13.50
2018-09-05T12:02:00.547Z,12.87
2018-09-05T12:04:29.042Z,13.57
2018-09-05T12:06:57.507Z,12.80
2018-09-05T12:09:27.029Z,12.47
2018-09-05T12:11:55.459Z,13.23
2018-09-05T12:14:23.916Z,12.97
2018-09-05T12:16:52.683Z,13.67
2018-09-05T12:19:21.156Z,13.77
2018-09-05T12:21:49.699Z,12.83
2018-09-05T12:24:18.191Z,13.00
2018-09-05T12:26:46.821Z,13.77
2018-09-05T12:29:15.390Z,12.83
2018-09-05T12:31:43.994Z,13.03
2018-09-05T12:34:46.898Z,13.37
2018-09-05T12:37:15.168Z,12.83
2018-09-05T12:39:43.470Z,12.53
2018-09-05T12:42:11.728Z,12.87
2018-09-05T12:44:39.968Z,13.20
2018-09-05T12:47:08.154Z,12.20
2018-09-05T12:49:36.424Z,12.10
2018-09-05T12:52:04.622Z,12.20
2018-09-05T12:54:32.903Z,12.40
2018-09-05T12:57:01.311Z,12.47
2018-09-05T12:59:29.600Z,13.10
2018-09-05T13:01:57.933Z,11.93
2018-09-05T13:04:26.212Z,12.37
2018-09-05T13:06:54.482Z,12.30
2018-09-05T13:09:22.772Z,11.60
2018-09-05T13:11:51.016Z,12.30
2018-09-05T13:14:19.325Z,11.93
2018-09-05T13:16:47.602Z,12.13
2018-09-05T13:19:15.883Z,12.53
2018-09-05T13:21:44.143Z,12.23
2018-09-05T13:24:12.483Z,12.53
2018-09-05T13:26:40.834Z,11.43
2018-09-05T13:29:09.303Z,12.53
2018-09-05T13:31:37.516Z,12.80
2018-09-05T13:34:05.742Z,12.17
2018-09-05T13:36:33.935Z,11.93
2018-09-05T13:39:02.212Z,12.90
2018-09-05T13:41:30.480Z,12.30
2018-09-05T13:43:58.746Z,11.53
2018-09-05T13:46:26.920Z,11.87
2018-09-05T13:48:55.144Z,11.77
2018-09-05T13:51:23.392Z,11.57
2018-09-05T13:53:51.614Z,11.40
2018-09-05T13:56:21.971Z,12.00
2018-09-05T13:58:50.991Z,11.50
2018-09-05T14:01:19.292Z,11.83
2018-09-05T14:03:47.530Z,11.27
2018-09-05T14:06:15.801Z,11.77
2018-09-05T14:08:44.067Z,12.23
2018-09-05T14:11:12.756Z,11.90
2018-09-05T14:13:40.967Z,12.00
2018-09-05T14:16:09.187Z,11.10
2018-09-05T14:18:37.526Z,10.93
2018-09-05T14:21:06.796Z,11.00
2018-09-05T14:23:35.448Z,11.47
2018-09-05T14:26:03.723Z,11.43
2018-09-05T14:28:32.962Z,11.20
2018-09-05T14:31:01.198Z,11.00
2018-09-05T14:33:29.455Z,10.73
2018-09-05T14:35:57.686Z,11.13
2018-09-05T14:38:25.957Z,10.87
2018-09-05T14:40:54.541Z,10.90
2018-09-05T14:43:22.779Z,10.57
2018-09-05T14:45:50.961Z,11.47
2018-09-05T14:48:19.212Z,11.20
2018-09-05T14:50:47.427Z,11.27
2018-09-05T14:53:15.643Z,11.03
2018-09-05T14:55:43.873Z,10.47
2018-09-05T14:58:12.152Z,9.97
2018-09-05T15:00:40.384Z,10.73
2018-09-05T15:03:08.700Z,11.17
2018-09-05T15:05:37.003Z,10.50
2018-09-05T15:08:05.252Z,11.27
2018-09-05T15:10:39.318Z,10.87
2018-09-05T15:13:07.530Z,10.60
2018-09-05T15:15:35.793Z,11.87
2018-09-05T15:18:04.109Z,11.23
2018-09-05T15:20:32.414Z,11.07
2018-09-05T15:23:00.709Z,10.90
2018-09-05T15:25:28.916Z,11.30
2018-09-05T15:27:57.306Z,11.00
2018-09-05T15:30:25.637Z,10.73
2018-09-05T15:32:53.842Z,11.80
2018-09-05T15:35:22.275Z,11.67
2018-09-05T15:37:50.506Z,12.10
2018-09-05T15:40:18.752Z,10.53
2018-09-05T15:42:47.107Z,11.37
2018-09-05T15:45:15.393Z,12.03
2018-09-05T15:47:43.615Z,11.10
2018-09-05T15:50:11.962Z,11.53
2018-09-05T15:52:40.140Z,11.07
2018-09-05T15:55:08.346Z,11.37
2018-09-05T15:57:36.623Z,11.83
2018-09-05T16:00:04.855Z,11.77
2018-09-05T16:02:33.067Z,12.67
2018-09-05T16:05:01.354Z,11.23
2018-09-05T16:07:29.938Z,12.20
2018-09-05T16:09:58.118Z,11.40
2018-09-05T16:12:26.378Z,11.83
2018-09-05T16:14:54.559Z,11.30
2018-09-05T16:17:22.838Z,12.63
2018-09-05T16:19:51.074Z,12.50
2018-09-05T16:22:19.291Z,11.57
2018-09-05T16:24:47.573Z,12.50
2018-09-05T16:27:15.835Z,12.00
2018-09-05T16:29:44.277Z,12.13
2018-09-05T16:32:12.577Z,12.00
2018-09-05T16:34:40.836Z,12.13
2018-09-05T16:37:09.133Z,12.00
2018-09-05T16:39:37.399Z,12.00
2018-09-05T16:42:05.697Z,11.90
2018-09-05T16:44:33.872Z,11.33
2018-09-05T16:47:02.131Z,11.27
2018-09-05T16:49:30.294Z,11.80
2018-09-05T16:51:58.550Z,11.00
2018-09-05T16:54:26.755Z,11.60
2018-09-05T16:56:54.949Z,11.60
2018-09-05T16:59:23.166Z,12.03
2018-09-05T17:01:51.412Z,16.03
2018-09-05T17:04:19.584Z,11.73
2018-09-05T17:06:47.929Z,12.60
2018-09-05T17:09:16.128Z,10.93
2018-09-05T17:11:44.371Z,11.03
2018-09-05T17:14:12.629Z,13.00
2018-09-05T17:16:40.862Z,10.90
2018-09-05T17:19:09.081Z,11.47
2018-09-05T17:21:37.354Z,11.57
2018-09-05T17:24:05.527Z,11.77
2018-09-05T17:26:33.843Z,11.90
2018-09-05T17:29:02.054Z,12.93
2018-09-05T17:31:30.234Z,10.97
2018-09-05T17:33:58.450Z,11.57
2018-09-05T17:36:26.651Z,12.37
2018-09-05T17:38:54.906Z,13.87
2018-09-05T17:41:23.104Z,14.10
2018-09-05T17:43:51.369Z,14.03
2018-09-05T17:46:19.648Z,16.27
2018-09-05T17:48:47.928Z,21.47
2018-09-05T17:51:16.172Z,17.43
2018-09-05T17:53:44.449Z,15.33
2018-09-05T17:56:12.646Z,15.90
2018-09-05T17:58:40.926Z,14.57
2018-09-05T18:01:12.656Z,24.47
2018-09-05T18:03:40.855Z,18.33
2018-09-05T18:06:09.116Z,20.97
2018-09-05T18:08:37.342Z,33.80
2018-09-05T18:11:05.587Z,18.23
2018-09-05T18:13:33.806Z,21.63
2018-09-05T18:16:02.081Z,14.67
2018-09-05T18:18:30.331Z,19.77
2018-09-05T18:20:58.551Z,16.60
2018-09-05T18:23:26.801Z,13.23
2018-09-05T18:25:54.986Z,14.50
2018-09-05T18:28:23.219Z,18.43
2018-09-05T18:30:51.478Z,17.63
2018-09-05T18:33:19.810Z,18.03
2018-09-05T18:35:48.039Z,18.10
2018-09-05T18:38:16.361Z,15.27
2018-09-05T18:40:44.494Z,12.90
2018-09-05T18:43:12.814Z,14.23
2018-09-05T18:45:41.099Z,14.27
2018-09-05T18:48:09.490Z,14.93
2018-09-05T18:50:38.061Z,17.13
2018-09-05T18:53:10.327Z,16.17
2018-09-05T18:55:40.029Z,14.83
2018-09-05T18:58:08.686Z,15.03
2018-09-05T19:00:37.572Z,16.10
2018-09-05T19:03:12.601Z,15.60
2018-09-05T19:05:43.530Z,14.93
2018-09-05T19:08:12.037Z,16.73
2018-09-05T19:10:40.696Z,19.47
2018-09-05T19:13:11.201Z,15.97
2018-09-05T19:15:39.683Z,15.33
2018-09-05T19:18:08.911Z,15.90
2018-09-05T19:20:37.340Z,15.80
2018-09-05T19:23:05.888Z,15.23
2018-09-05T19:25:34.346Z,15.47
2018-09-05T19:28:02.921Z,16.13
2018-09-05T19:30:32.339Z,15.53
2018-09-05T19:33:00.769Z,18.13
2018-09-05T19:35:29.302Z,15.67
2018-09-05T19:37:57.716Z,15.93
2018-09-05T19:40:26.147Z,15.63
2018-09-05T19:42:54.475Z,14.67
2018-09-05T19:45:22.919Z,15.40
2018-09-05T19:47:51.506Z,15.90
2018-09-05T19:50:19.896Z,16.47
2018-09-05T19:52:48.320Z,16.90
2018-09-05T19:55:16.791Z,15.73
2018-09-05T19:57:45.164Z,15.17
2018-09-05T20:00:15.131Z,16.43
2018-09-05T20:02:43.574Z,16.37
2018-09-05T20:05:12.096Z,14.70
2018-09-05T20:07:40.544Z,15.13
2018-09-05T20:10:09.040Z,15.17
2018-09-05T20:12:37.451Z,15.83
2018-09-05T20:15:05.931Z,16.80
2018-09-05T20:17:34.393Z,16.90
2018-09-05T20:20:02.804Z,17.60
2018-09-05T20:22:31.203Z,17.47
2018-09-05T20:24:59.723Z,18.13
2018-09-05T20:27:28.283Z,18.87
2018-09-05T20:29:57.192Z,17.43
2018-09-05T20:32:25.801Z,17.13
2018-09-05T20:34:54.234Z,17.87
2018-09-05T20:37:22.643Z,18.10
2018-09-05T20:39:51.091Z,17.50
2018-09-05T20:42:19.572Z,17.63
2018-09-05T20:44:48.045Z,26.97
2018-09-05T20:47:16.544Z,17.33
2018-09-05T20:49:44.984Z,17.00
2018-09-05T20:52:13.537Z,16.67
2018-09-05T20:54:42.019Z,16.70
2018-09-05T20:57:10.484Z,17.10
2018-09-05T20:59:38.956Z,17.97
2018-09-05T21:02:07.361Z,16.40
2018-09-05T21:04:35.803Z,15.97
2018-09-05T21:07:04.236Z,15.37
2018-09-05T21:09:32.760Z,18.33
2018-09-05T21:12:01.351Z,16.20
2018-09-05T21:14:29.812Z,15.47
2018-09-05T21:16:58.298Z,16.20
2018-09-05T21:19:26.999Z,17.13
2018-09-05T21:21:55.507Z,16.77
2018-09-05T21:24:24.057Z,16.40
2018-09-05T21:26:52.435Z,16.90
2018-09-05T21:29:20.880Z,16.03
2018-09-05T21:31:49.420Z,15.90
2018-09-05T21:34:17.823Z,17.13
2018-09-05T21:36:46.265Z,16.70
2018-09-05T21:39:14.720Z,16.63
2018-09-05T21:41:43.214Z,17.87
2018-09-05T21:44:11.727Z,17.77
2018-09-05T21:46:40.232Z,17.47
2018-09-05T21:49:08.674Z,18.73
2018-09-05T21:51:37.085Z,18.57
2018-09-05T21:54:05.603Z,17.60
2018-09-05T21:56:34.067Z,19.57
2018-09-05T21:59:02.542Z,17.07
2018-09-05T22:01:31.046Z,18.93
2018-09-05T22:03:59.478Z,18.60
2018-09-05T22:06:27.958Z,19.30
2018-09-05T22:08:56.440Z,21.20
2018-09-05T22:11:26.821Z,20.40
2018-09-05T22:13:56.016Z,19.40
2018-09-05T22:16:24.507Z,21.70
2018-09-05T22:18:53.049Z,21.43
2018-09-05T22:21:21.562Z,21.00
2018-09-05T22:23:50.047Z,20.43
2018-09-05T22:26:18.545Z,19.10
2018-09-05T22:28:47.088Z,18.60
2018-09-05T22:31:15.605Z,16.77
2018-09-05T22:33:44.155Z,17.67
2018-09-05T22:36:12.571Z,16.93
2018-09-05T22:38:41.014Z,17.50
2018-09-05T22:41:09.418Z,17.20
2018-09-05T22:43:49.059Z,17.43
2018-09-05T22:46:28.771Z,18.40
2018-09-05T22:49:08.376Z,18.00
2018-09-05T22:52:19.452Z,18.63
2018-09-05T22:57:11.754Z,19.00
2018-09-05T23:01:02.074Z,19.57
2018-09-05T23:03:41.926Z,19.07
2018-09-05T23:07:20.351Z,19.00
2018-09-05T23:09:59.966Z,20.23
2018-09-05T23:12:39.717Z,21.63
2018-09-05T23:15:19.574Z,23.27
2018-09-05T23:20:02.418Z,21.73
2018-09-05T23:22:42.112Z,19.13
2018-09-05T23:25:10.748Z,18.57
2018-09-05T23:27:39.260Z,21.47
2018-09-05T23:30:08.416Z,20.03
2018-09-05T23:32:36.859Z,18.87
2018-09-05T23:35:05.379Z,19.10
2018-09-05T23:37:33.998Z,19.23
2018-09-05T23:40:02.535Z,18.80
2018-09-05T23:42:30.977Z,19.57
2018-09-05T23:44:59.499Z,21.37
2018-09-05T23:47:28.089Z,18.93
2018-09-05T23:49:56.515Z,20.70
2018-09-05T23:52:24.952Z,18.97
2018-09-05T23:54:53.534Z,20.27
2018-09-05T23:57:22.023Z,19.57
2018-09-05T23:59:50.505Z,20.37
